createdAt,value
2023-04-17T00:00:55.142Z,19.79
2023-04-17T00:01:55.179Z,19.79
2023-04-17T00:02:55.286Z,19.89
2023-04-17T00:03:55.245Z,19.70
2023-04-17T00:04:55.244Z,19.79
2023-04-17T00:05:55.142Z,19.60
2023-04-17T00:06:55.132Z,19.59
2023-04-17T00:07:55.162Z,19.70
2023-04-17T00:08:55.132Z,19.68
2023-04-17T00:09:55.138Z,19.60
2023-04-17T00:11:04.678Z,19.60
2023-04-17T00:11:55.137Z,19.68
2023-04-17T00:12:55.140Z,19.70
2023-04-17T00:13:55.145Z,19.70
2023-04-17T00:14:55.127Z,19.59
2023-04-17T00:15:55.145Z,19.60
2023-04-17T00:16:55.171Z,19.60
2023-04-17T00:17:55.189Z,19.70
2023-04-17T00:18:55.123Z,19.60
2023-04-17T00:19:55.133Z,19.49
2023-04-17T00:20:55.126Z,19.60
2023-04-17T00:21:55.141Z,19.70
2023-04-17T00:22:55.124Z,19.68
2023-04-17T00:23:55.150Z,19.59
2023-04-17T00:24:55.124Z,19.60
2023-04-17T00:25:55.134Z,19.78
2023-04-17T00:26:55.122Z,19.68
2023-04-17T00:27:55.129Z,19.70
2023-04-17T00:28:55.124Z,19.70
2023-04-17T00:29:55.139Z,19.70
2023-04-17T00:30:55.124Z,19.70
2023-04-17T00:31:55.189Z,19.60
2023-04-17T00:32:55.141Z,19.70
2023-04-17T00:33:55.129Z,19.68
2023-04-17T00:34:55.935Z,19.60
2023-04-17T00:35:55.133Z,19.70
2023-04-17T00:36:55.121Z,19.59
2023-04-17T00:37:55.127Z,19.68
2023-04-17T00:38:55.120Z,19.59
2023-04-17T00:39:55.153Z,19.70
2023-04-17T00:40:55.176Z,19.68
2023-04-17T00:41:55.126Z,19.60
2023-04-17T00:42:55.120Z,19.79
2023-04-17T00:43:55.133Z,19.78
2023-04-17T00:44:55.129Z,19.59
2023-04-17T00:45:55.151Z,19.60
2023-04-17T00:46:55.131Z,19.70
2023-04-17T00:47:55.183Z,19.60
2023-04-17T00:48:55.116Z,19.70
2023-04-17T00:49:55.127Z,19.78
2023-04-17T00:50:55.116Z,19.70
2023-04-17T00:51:55.120Z,19.79
2023-04-17T00:52:55.119Z,19.68
2023-04-17T00:53:55.123Z,19.70
2023-04-17T00:54:55.113Z,19.70
2023-04-17T00:55:55.171Z,19.70
2023-04-17T00:56:55.114Z,19.60
2023-04-17T00:57:55.125Z,19.60
2023-04-17T00:58:55.118Z,19.70
2023-04-17T00:59:55.121Z,19.70
2023-04-17T01:00:55.167Z,19.68
2023-04-17T01:01:55.182Z,19.59
2023-04-17T01:02:55.200Z,19.50
2023-04-17T01:03:55.444Z,19.50
2023-04-17T01:04:55.125Z,19.79
2023-04-17T01:05:55.109Z,19.50
2023-04-17T01:06:55.125Z,19.50
2023-04-17T01:07:55.107Z,19.50
2023-04-17T01:08:55.167Z,19.50
2023-04-17T01:09:55.109Z,19.60
2023-04-17T01:10:55.126Z,19.60
2023-04-17T01:11:55.146Z,19.49
2023-04-17T01:12:55.112Z,19.60
2023-04-17T01:13:55.114Z,19.49
2023-04-17T01:14:55.122Z,19.50
2023-04-17T01:15:55.106Z,19.50
2023-04-17T01:16:55.162Z,19.50
2023-04-17T01:17:55.176Z,19.50
2023-04-17T01:18:55.109Z,19.60
2023-04-17T01:19:55.102Z,19.60
2023-04-17T01:20:55.106Z,19.60
2023-04-17T01:21:55.100Z,19.60
2023-04-17T01:22:55.107Z,19.50
2023-04-17T01:23:55.100Z,19.40
2023-04-17T01:24:55.117Z,19.59
2023-04-17T01:25:55.098Z,19.50
2023-04-17T01:26:55.104Z,19.59
2023-04-17T01:27:55.119Z,19.50
2023-04-17T01:28:55.105Z,19.60
2023-04-17T01:29:55.097Z,19.50
2023-04-17T01:30:55.147Z,19.49
2023-04-17T01:31:55.096Z,19.70
2023-04-17T01:32:55.195Z,19.79
2023-04-17T01:33:55.095Z,19.50
2023-04-17T01:34:55.102Z,19.49
2023-04-17T01:35:55.094Z,19.49
2023-04-17T01:36:55.106Z,19.68
2023-04-17T01:37:55.096Z,19.49
2023-04-17T01:38:55.101Z,19.60
2023-04-17T01:39:55.093Z,19.50
2023-04-17T01:40:55.101Z,19.49
2023-04-17T01:41:55.094Z,19.50
2023-04-17T01:42:55.100Z,19.50
2023-04-17T01:43:55.120Z,19.50
2023-04-17T01:44:55.103Z,19.50
2023-04-17T01:45:55.158Z,19.49
2023-04-17T01:46:55.097Z,19.50
2023-04-17T01:47:55.132Z,19.59
2023-04-17T01:48:55.095Z,19.59
2023-04-17T01:49:55.093Z,19.59
2023-04-17T01:50:55.098Z,19.68
2023-04-17T01:51:55.092Z,19.59
2023-04-17T01:52:55.098Z,19.40
2023-04-17T01:53:55.089Z,19.50
2023-04-17T01:54:55.099Z,19.40
2023-04-17T01:55:55.087Z,19.60
2023-04-17T01:56:55.097Z,19.50
2023-04-17T01:57:55.086Z,19.60
2023-04-17T01:58:55.093Z,19.60
2023-04-17T01:59:55.110Z,19.60
2023-04-17T02:00:55.093Z,19.31
2023-04-17T02:01:55.165Z,19.40
2023-04-17T02:02:55.312Z,19.50
2023-04-17T02:03:55.264Z,19.50
2023-04-17T02:04:55.093Z,19.40
2023-04-17T02:05:55.083Z,19.50
2023-04-17T02:06:55.091Z,19.40
2023-04-17T02:07:55.087Z,19.50
2023-04-17T02:08:55.090Z,19.50
2023-04-17T02:09:55.089Z,19.50
2023-04-17T02:10:55.089Z,19.60
2023-04-17T02:11:55.080Z,19.40
2023-04-17T02:12:55.088Z,19.40
2023-04-17T02:13:55.089Z,19.50
2023-04-17T02:14:55.094Z,19.50
2023-04-17T02:15:55.187Z,19.50
2023-04-17T02:16:55.089Z,19.50
2023-04-17T02:17:55.214Z,19.50
2023-04-17T02:18:55.109Z,19.50
2023-04-17T02:19:55.079Z,19.50
2023-04-17T02:20:55.091Z,19.31
2023-04-17T02:21:55.078Z,19.40
2023-04-17T02:22:55.083Z,19.31
2023-04-17T02:23:55.075Z,19.31
2023-04-17T02:24:55.101Z,19.40
2023-04-17T02:25:55.078Z,19.50
2023-04-17T02:26:55.084Z,19.50
2023-04-17T02:27:55.077Z,19.31
2023-04-17T02:28:55.088Z,19.40
2023-04-17T02:29:55.076Z,19.40
2023-04-17T02:30:55.193Z,19.60
2023-04-17T02:31:55.091Z,19.40
2023-04-17T02:32:55.191Z,19.60
2023-04-17T02:33:55.072Z,19.31
2023-04-17T02:34:55.079Z,19.31
2023-04-17T02:35:55.078Z,19.31
2023-04-17T02:36:55.094Z,19.31
2023-04-17T02:37:55.087Z,19.50
2023-04-17T02:38:55.076Z,19.31
2023-04-17T02:39:55.070Z,19.50
2023-04-17T02:40:55.078Z,19.31
2023-04-17T02:41:55.073Z,19.31
2023-04-17T02:42:55.078Z,19.40
2023-04-17T02:43:55.071Z,19.31
2023-04-17T02:44:55.074Z,19.50
2023-04-17T02:45:55.074Z,19.31
2023-04-17T02:46:55.160Z,19.31
2023-04-17T02:47:55.217Z,19.31
2023-04-17T02:48:55.083Z,19.31
2023-04-17T02:49:55.074Z,19.31
2023-04-17T02:50:55.089Z,19.31
2023-04-17T02:51:55.069Z,19.31
2023-04-17T02:52:55.083Z,19.50
2023-04-17T02:53:55.078Z,19.31
2023-04-17T02:54:55.077Z,19.40
2023-04-17T02:55:55.070Z,19.31
2023-04-17T02:56:55.075Z,19.40
2023-04-17T02:57:55.069Z,19.21
2023-04-17T02:58:55.081Z,19.31
2023-04-17T02:59:55.065Z,19.31
2023-04-17T03:00:55.133Z,18.92
2023-04-17T03:01:55.168Z,19.50
2023-04-17T03:02:55.179Z,19.31
2023-04-17T03:03:55.321Z,19.40
2023-04-17T03:04:55.080Z,19.40
2023-04-17T03:05:55.070Z,19.21
2023-04-17T03:06:55.086Z,19.40
2023-04-17T03:07:55.067Z,19.31
2023-04-17T03:08:55.072Z,19.50
2023-04-17T03:09:55.066Z,19.31
2023-04-17T03:10:55.073Z,19.40
2023-04-17T03:11:55.068Z,19.50
2023-04-17T03:12:55.088Z,19.20
2023-04-17T03:13:55.084Z,19.31
2023-04-17T03:14:55.074Z,19.31
2023-04-17T03:15:55.074Z,19.31
2023-04-17T03:16:55.124Z,19.31
2023-04-17T03:17:55.078Z,19.50
2023-04-17T03:18:55.070Z,19.31
2023-04-17T03:19:55.087Z,19.50
2023-04-17T03:20:55.074Z,19.40
2023-04-17T03:21:55.067Z,19.40
2023-04-17T03:22:55.071Z,19.31
2023-04-17T03:23:55.074Z,19.21
2023-04-17T03:24:55.071Z,19.40
2023-04-17T03:25:55.058Z,19.21
2023-04-17T03:26:55.072Z,19.40
2023-04-17T03:27:55.061Z,19.31
2023-04-17T03:28:55.096Z,19.31
2023-04-17T03:29:55.064Z,19.31
2023-04-17T03:30:55.073Z,19.31
2023-04-17T03:31:55.091Z,19.40
2023-04-17T03:32:55.106Z,19.31
2023-04-17T03:33:55.072Z,19.31
2023-04-17T03:34:55.067Z,19.31
2023-04-17T03:35:55.080Z,19.31
2023-04-17T03:36:55.071Z,19.21
2023-04-17T03:37:55.060Z,19.31
2023-04-17T03:38:55.059Z,19.21
2023-04-17T03:39:55.054Z,19.21
2023-04-17T03:40:55.071Z,19.31
2023-04-17T03:41:55.061Z,19.21
2023-04-17T03:42:55.060Z,18.92
2023-04-17T03:43:55.063Z,19.31
2023-04-17T03:44:55.072Z,19.21
2023-04-17T03:45:55.066Z,19.02
2023-04-17T03:46:55.059Z,19.02
2023-04-17T03:47:55.085Z,18.92
2023-04-17T03:48:55.059Z,18.92
2023-04-17T03:49:55.052Z,19.02
2023-04-17T03:50:55.058Z,19.02
2023-04-17T03:51:55.071Z,18.92
2023-04-17T03:52:55.063Z,19.02
2023-04-17T03:53:55.053Z,18.92
2023-04-17T03:54:55.064Z,19.02
2023-04-17T03:55:55.046Z,19.02
2023-04-17T03:56:55.054Z,18.92
2023-04-17T03:57:55.046Z,18.92
2023-04-17T03:58:55.058Z,19.02
2023-04-17T03:59:55.043Z,19.21
2023-04-17T04:00:55.049Z,19.02
2023-04-17T04:01:55.077Z,18.92
2023-04-17T04:02:55.239Z,19.02
2023-04-17T04:03:55.208Z,18.92
2023-04-17T04:04:55.186Z,18.92
2023-04-17T04:05:55.040Z,19.21
2023-04-17T04:06:55.045Z,19.21
2023-04-17T04:07:55.084Z,19.21
2023-04-17T04:08:55.044Z,19.21
2023-04-17T04:09:55.038Z,19.31
2023-04-17T04:10:55.041Z,19.31
2023-04-17T04:11:55.038Z,19.50
2023-04-17T04:12:55.043Z,19.40
2023-04-17T04:13:55.034Z,19.31
2023-04-17T04:14:55.044Z,19.31
2023-04-17T04:15:55.117Z,19.31
2023-04-17T04:16:55.053Z,19.21
2023-04-17T04:17:55.106Z,19.21
2023-04-17T04:18:55.045Z,19.31
2023-04-17T04:19:55.036Z,19.50
2023-04-17T04:20:55.039Z,19.50
2023-04-17T04:21:55.030Z,19.50
2023-04-17T04:22:55.038Z,19.40
2023-04-17T04:23:55.189Z,19.60
2023-04-17T04:24:55.039Z,19.40
2023-04-17T04:25:55.029Z,19.31
2023-04-17T04:26:55.036Z,19.40
2023-04-17T04:27:55.029Z,19.60
2023-04-17T04:28:55.038Z,19.50
2023-04-17T04:29:55.029Z,19.40
2023-04-17T04:30:55.033Z,19.40
2023-04-17T04:31:55.129Z,19.40
2023-04-17T04:32:55.064Z,19.40
2023-04-17T04:33:55.055Z,19.50
2023-04-17T04:34:55.036Z,19.50
2023-04-17T04:35:55.024Z,19.50
2023-04-17T04:36:55.030Z,19.50
2023-04-17T04:37:55.105Z,19.50
2023-04-17T04:38:55.030Z,19.40
2023-04-17T04:39:55.049Z,19.60
2023-04-17T04:40:55.031Z,19.60
2023-04-17T04:41:55.022Z,19.50
2023-04-17T04:42:55.030Z,19.49
2023-04-17T04:43:55.027Z,19.59
2023-04-17T04:44:55.034Z,19.50
2023-04-17T04:45:55.021Z,19.50
2023-04-17T04:46:55.069Z,19.50
2023-04-17T04:47:55.037Z,19.70
2023-04-17T04:48:55.038Z,19.68
2023-04-17T04:49:55.018Z,19.70
2023-04-17T04:50:55.026Z,19.60
2023-04-17T04:51:55.020Z,19.60
2023-04-17T04:52:55.027Z,19.59
2023-04-17T04:53:55.018Z,19.59
2023-04-17T04:54:55.028Z,19.79
2023-04-17T04:55:55.039Z,19.79
2023-04-17T04:56:55.022Z,19.68
2023-04-17T04:57:55.017Z,19.70
2023-04-17T04:58:55.021Z,19.68
2023-04-17T04:59:55.015Z,19.68
2023-04-17T05:00:55.057Z,20.07
2023-04-17T05:01:55.098Z,19.98
2023-04-17T05:02:55.280Z,19.88
2023-04-17T05:03:55.232Z,19.88
2023-04-17T05:04:55.082Z,19.78
2023-04-17T05:05:55.014Z,19.98
2023-04-17T05:06:55.029Z,19.98
2023-04-17T05:07:55.042Z,19.98
2023-04-17T05:08:55.021Z,19.88
2023-04-17T05:09:55.021Z,19.98
2023-04-17T05:10:55.024Z,19.88
2023-04-17T05:11:55.045Z,19.98
2023-04-17T05:12:55.020Z,19.98
2023-04-17T05:13:55.012Z,19.98
2023-04-17T05:14:55.019Z,20.07
2023-04-17T05:15:55.058Z,19.88
2023-04-17T05:16:55.024Z,19.88
2023-04-17T05:17:55.073Z,19.98
2023-04-17T05:18:55.012Z,19.88
2023-04-17T05:19:55.029Z,20.85
2023-04-17T05:20:55.022Z,20.47
2023-04-17T05:21:55.014Z,20.07
2023-04-17T05:22:55.006Z,20.17
2023-04-17T05:23:55.017Z,20.07
2023-04-17T05:24:55.008Z,20.28
2023-04-17T05:25:55.033Z,20.86
2023-04-17T05:26:55.028Z,21.25
2023-04-17T05:27:55.148Z,20.57
2023-04-17T05:28:55.018Z,20.28
2023-04-17T05:29:55.015Z,19.89
2023-04-17T05:30:55.004Z,20.08
2023-04-17T05:31:55.072Z,20.08
2023-04-17T05:32:55.020Z,20.08
2023-04-17T05:33:55.016Z,20.08
2023-04-17T05:34:55.002Z,20.08
2023-04-17T05:35:56.400Z,20.08
2023-04-17T05:36:55.006Z,20.47
2023-04-17T05:37:55.006Z,20.18
2023-04-17T05:38:54.999Z,20.18
2023-04-17T05:39:55.008Z,20.08
2023-04-17T05:40:55.002Z,19.99
2023-04-17T05:41:55.011Z,20.08
2023-04-17T05:42:55.004Z,20.18
2023-04-17T05:43:55.042Z,20.37
2023-04-17T05:44:54.999Z,19.79
2023-04-17T05:45:55.064Z,19.79
2023-04-17T05:46:54.995Z,19.99
2023-04-17T05:47:55.049Z,19.89
2023-04-17T05:48:55.010Z,19.99
2023-04-17T05:49:55.006Z,19.99
2023-04-17T05:50:54.999Z,19.89
2023-04-17T05:51:55.000Z,20.00
2023-04-17T05:52:54.991Z,20.57
2023-04-17T05:53:55.002Z,20.19
2023-04-17T05:54:55.011Z,19.90
2023-04-17T05:55:55.017Z,19.90
2023-04-17T05:56:54.994Z,20.00
2023-04-17T05:57:58.064Z,19.90
2023-04-17T05:58:54.993Z,20.00
2023-04-17T05:59:55.027Z,20.00
2023-04-17T06:00:54.999Z,20.00
2023-04-17T06:01:55.149Z,19.80
2023-04-17T06:02:55.158Z,19.70
2023-04-17T06:03:55.242Z,19.70
2023-04-17T06:04:55.259Z,19.70
2023-04-17T06:05:55.053Z,19.90
2023-04-17T06:06:54.994Z,19.90
2023-04-17T06:07:55.023Z,19.90
2023-04-17T06:08:54.992Z,19.80
2023-04-17T06:09:55.000Z,19.90
2023-04-17T06:10:54.991Z,19.70
2023-04-17T06:11:55.006Z,19.61
2023-04-17T06:12:54.997Z,19.70
2023-04-17T06:13:54.999Z,19.80
2023-04-17T06:14:54.993Z,19.61
2023-04-17T06:15:55.029Z,19.70
2023-04-17T06:16:55.121Z,19.52
2023-04-17T06:17:55.034Z,19.71
2023-04-17T06:18:54.992Z,19.42
2023-04-17T06:19:55.008Z,19.62
2023-04-17T06:20:54.988Z,19.51
2023-04-17T06:21:55.014Z,19.51
2023-04-17T06:22:54.990Z,19.51
2023-04-17T06:23:55.013Z,19.61
2023-04-17T06:24:54.993Z,19.81
2023-04-17T06:25:55.003Z,19.52
2023-04-17T06:26:54.995Z,19.62
2023-04-17T06:27:54.997Z,19.42
2023-04-17T06:28:54.994Z,19.62
2023-04-17T06:29:55.006Z,19.42
2023-04-17T06:30:55.039Z,19.32
2023-04-17T06:31:55.058Z,19.04
2023-04-17T06:32:55.022Z,19.04
2023-04-17T06:33:55.002Z,19.04
2023-04-17T06:34:59.530Z,19.13
2023-04-17T06:35:55.000Z,19.23
2023-04-17T06:36:55.004Z,19.04
2023-04-17T06:37:54.999Z,19.04
2023-04-17T06:38:54.995Z,19.04
2023-04-17T06:39:55.016Z,18.94
2023-04-17T06:40:54.993Z,18.94
2023-04-17T06:41:55.031Z,18.94
2023-04-17T06:42:54.990Z,19.23
2023-04-17T06:43:55.004Z,19.04
2023-04-17T06:44:55.007Z,19.13
2023-04-17T06:45:55.063Z,19.04
2023-04-17T06:46:55.068Z,19.23
2023-04-17T06:47:55.140Z,19.13
2023-04-17T06:48:54.989Z,19.04
2023-04-17T06:49:55.003Z,19.13
2023-04-17T06:50:54.993Z,19.23
2023-04-17T06:51:55.004Z,19.23
2023-04-17T06:52:54.993Z,19.13
2023-04-17T06:53:54.999Z,19.23
2023-04-17T06:54:54.990Z,19.04
2023-04-17T06:55:54.999Z,18.94
2023-04-17T06:56:54.992Z,19.04
2023-04-17T06:57:54.998Z,19.23
2023-04-17T06:58:54.991Z,19.13
2023-04-17T06:59:55.001Z,19.81
2023-04-17T07:00:54.990Z,19.62
2023-04-17T07:01:55.077Z,18.94
2023-04-17T07:02:55.052Z,19.04
2023-04-17T07:03:55.171Z,19.13
2023-04-17T07:04:55.243Z,19.13
2023-04-17T07:05:55.005Z,19.23
2023-04-17T07:06:54.991Z,19.04
2023-04-17T07:07:55.000Z,19.04
2023-04-17T07:08:55.703Z,19.04
2023-04-17T07:09:55.002Z,19.04
2023-04-17T07:10:54.989Z,18.94
2023-04-17T07:11:55.000Z,19.04
2023-04-17T07:12:54.997Z,19.04
2023-04-17T07:13:54.997Z,18.94
2023-04-17T07:14:54.987Z,18.94
2023-04-17T07:15:55.155Z,19.04
2023-04-17T07:16:55.046Z,19.04
2023-04-17T07:17:55.039Z,19.04
2023-04-17T07:18:54.996Z,19.13
2023-04-17T07:19:55.183Z,19.13
2023-04-17T07:20:54.996Z,19.13
2023-04-17T07:21:54.999Z,18.84
2023-04-17T07:22:54.996Z,18.84
2023-04-17T07:23:54.996Z,19.32
2023-04-17T07:24:54.991Z,19.23
2023-04-17T07:25:55.008Z,19.32
2023-04-17T07:26:55.117Z,19.23
2023-04-17T07:27:54.998Z,18.84
2023-04-17T07:28:54.990Z,19.04
2023-04-17T07:29:54.996Z,18.94
2023-04-17T07:30:55.000Z,18.94
2023-04-17T07:31:55.072Z,19.04
2023-04-17T07:32:55.054Z,19.04
2023-04-17T07:33:55.035Z,18.94
2023-04-17T07:34:55.005Z,18.94
2023-04-17T07:35:55.126Z,19.04
2023-04-17T07:36:54.996Z,19.32
2023-04-17T07:37:55.002Z,19.52
2023-04-17T07:38:54.990Z,19.42
2023-04-17T07:39:54.996Z,19.62
2023-04-17T07:40:54.990Z,19.52
2023-04-17T07:41:55.000Z,19.62
2023-04-17T07:42:54.987Z,19.52
2023-04-17T07:43:56.499Z,19.52
2023-04-17T07:44:54.993Z,19.32
2023-04-17T07:45:55.000Z,19.52
2023-04-17T07:46:55.014Z,19.32
2023-04-17T07:47:55.037Z,19.52
2023-04-17T07:48:54.990Z,19.42
2023-04-17T07:49:54.998Z,19.42
2023-04-17T07:50:54.989Z,19.42
2023-04-17T07:51:55.044Z,19.42
2023-04-17T07:52:54.992Z,19.42
2023-04-17T07:53:55.002Z,19.52
2023-04-17T07:54:55.014Z,19.62
2023-04-17T07:55:55.069Z,19.62
2023-04-17T07:56:54.995Z,19.62
2023-04-17T07:57:55.007Z,19.52
2023-04-17T07:58:54.999Z,19.52
2023-04-17T07:59:54.998Z,19.42
2023-04-17T08:00:54.995Z,19.52
2023-04-17T08:01:55.080Z,19.32
2023-04-17T08:02:55.136Z,19.32
2023-04-17T08:03:55.379Z,19.23
2023-04-17T08:04:55.059Z,19.32
2023-04-17T08:05:55.058Z,19.42
2023-04-17T08:06:54.991Z,19.52
2023-04-17T08:07:55.059Z,19.52
2023-04-17T08:08:55.005Z,19.42
2023-04-17T08:09:54.998Z,19.42
2023-04-17T08:10:54.993Z,19.32
2023-04-17T08:11:57.960Z,19.32
2023-04-17T08:12:55.001Z,19.52
2023-04-17T08:13:55.000Z,19.32
2023-04-17T08:14:54.993Z,19.32
2023-04-17T08:15:55.001Z,19.32
2023-04-17T08:16:55.052Z,19.42
2023-04-17T08:17:55.070Z,19.23
2023-04-17T08:18:54.992Z,19.32
2023-04-17T08:19:55.000Z,19.52
2023-04-17T08:20:54.999Z,19.52
2023-04-17T08:21:55.008Z,19.42
2023-04-17T08:22:54.993Z,19.91
2023-04-17T08:23:55.021Z,19.71
2023-04-17T08:24:55.009Z,19.71
2023-04-17T08:25:55.004Z,19.71
2023-04-17T08:26:55.005Z,19.71
2023-04-17T08:27:55.016Z,19.81
2023-04-17T08:28:54.999Z,19.52
2023-04-17T08:29:55.009Z,19.71
2023-04-17T08:30:55.027Z,19.71
2023-04-17T08:32:10.352Z,19.81
2023-04-17T08:32:55.072Z,19.62
2023-04-17T08:34:06.252Z,19.62
2023-04-17T08:34:54.995Z,19.81
2023-04-17T08:35:55.003Z,19.62
2023-04-17T08:36:54.993Z,20.01
2023-04-17T08:37:55.003Z,19.81
2023-04-17T08:38:55.001Z,19.71
2023-04-17T08:39:55.127Z,19.71
2023-04-17T08:40:54.997Z,19.81
2023-04-17T08:41:55.028Z,19.91
2023-04-17T08:42:55.006Z,19.71
2023-04-17T08:43:55.003Z,19.71
2023-04-17T08:44:54.999Z,19.71
2023-04-17T08:45:55.093Z,19.71
2023-04-17T08:46:54.996Z,19.91
2023-04-17T08:47:55.054Z,20.01
2023-04-17T08:48:54.999Z,19.81
2023-04-17T08:49:55.008Z,19.81
2023-04-17T08:50:54.995Z,19.81
2023-04-17T08:51:55.025Z,19.81
2023-04-17T08:52:54.996Z,19.81
2023-04-17T08:53:55.007Z,19.91
2023-04-17T08:54:54.999Z,19.81
2023-04-17T08:55:55.029Z,19.91
2023-04-17T08:56:54.996Z,19.81
2023-04-17T08:57:55.013Z,19.81
2023-04-17T08:58:54.997Z,19.81
2023-04-17T08:59:55.006Z,19.81
2023-04-17T09:00:54.998Z,19.81
2023-04-17T09:01:55.139Z,20.01
2023-04-17T09:02:55.298Z,20.01
2023-04-17T09:03:55.272Z,20.01
2023-04-17T09:04:55.282Z,19.91
2023-04-17T09:05:55.004Z,19.90
2023-04-17T09:06:54.998Z,20.01
2023-04-17T09:07:55.004Z,19.90
2023-04-17T09:08:55.001Z,20.01
2023-04-17T09:09:55.006Z,20.01
2023-04-17T09:10:55.000Z,19.91
2023-04-17T09:11:55.034Z,20.00
2023-04-17T09:12:55.003Z,19.91
2023-04-17T09:13:55.009Z,19.90
2023-04-17T09:14:55.011Z,19.90
2023-04-17T09:15:55.030Z,20.00
2023-04-17T09:16:54.995Z,20.00
2023-04-17T09:17:55.025Z,20.09
2023-04-17T09:18:54.999Z,20.00
2023-04-17T09:19:55.008Z,20.00
2023-04-17T09:20:54.998Z,19.90
2023-04-17T09:21:55.004Z,19.80
2023-04-17T09:22:54.997Z,19.80
2023-04-17T09:23:55.005Z,19.80
2023-04-17T09:24:56.735Z,19.80
2023-04-17T09:25:55.006Z,20.29
2023-04-17T09:26:54.999Z,20.29
2023-04-17T09:27:55.047Z,20.39
2023-04-17T09:28:55.000Z,20.39
2023-04-17T09:29:55.002Z,20.29
2023-04-17T09:30:54.999Z,20.09
2023-04-17T09:31:55.052Z,20.19
2023-04-17T09:32:55.084Z,20.19
2023-04-17T09:33:55.014Z,20.09
2023-04-17T09:34:55.008Z,20.09
2023-04-17T09:35:55.000Z,20.09
2023-04-17T09:36:55.010Z,20.09
2023-04-17T09:37:55.013Z,20.09
2023-04-17T09:38:55.052Z,20.09
2023-04-17T09:39:54.997Z,20.19
2023-04-17T09:40:55.006Z,20.09
2023-04-17T09:41:54.999Z,20.19
2023-04-17T09:42:55.005Z,20.09
2023-04-17T09:43:55.028Z,20.09
2023-04-17T09:44:55.002Z,20.19
2023-04-17T09:45:54.997Z,20.00
2023-04-17T09:46:55.067Z,20.09
2023-04-17T09:47:55.045Z,20.09
2023-04-17T09:48:55.004Z,20.19
2023-04-17T09:49:54.998Z,20.09
2023-04-17T09:50:55.011Z,20.19
2023-04-17T09:51:55.009Z,20.09
2023-04-17T09:52:55.010Z,20.29
2023-04-17T09:53:54.994Z,20.39
2023-04-17T09:54:55.019Z,20.48
2023-04-17T09:55:54.992Z,20.48
2023-04-17T09:56:55.003Z,20.48
2023-04-17T09:57:54.991Z,20.48
2023-04-17T09:58:54.998Z,20.86
2023-04-17T09:59:55.013Z,20.58
2023-04-17T10:00:55.021Z,20.58
2023-04-17T10:01:55.058Z,20.97
2023-04-17T10:02:55.109Z,20.77
2023-04-17T10:03:55.140Z,20.68
2023-04-17T10:04:55.005Z,20.97
2023-04-17T10:05:54.989Z,20.48
2023-04-17T10:06:55.005Z,20.77
2023-04-17T10:07:54.988Z,20.87
2023-04-17T10:08:55.002Z,20.77
2023-04-17T10:09:54.988Z,20.97
2023-04-17T10:10:54.994Z,20.87
2023-04-17T10:11:54.993Z,20.87
2023-04-17T10:12:54.991Z,20.58
2023-04-17T10:13:55.013Z,20.77
2023-04-17T10:14:54.993Z,20.68
2023-04-17T10:15:55.085Z,20.77
2023-04-17T10:16:55.012Z,20.87
2023-04-17T10:17:55.088Z,20.58
2023-04-17T10:18:55.003Z,20.58
2023-04-17T10:19:54.992Z,20.58
2023-04-17T10:20:54.993Z,20.77
2023-04-17T10:21:54.986Z,20.77
2023-04-17T10:22:54.997Z,20.87
2023-04-17T10:23:54.998Z,20.48
2023-04-17T10:24:55.001Z,20.77
2023-04-17T10:25:54.983Z,20.48
2023-04-17T10:26:55.001Z,20.48
2023-04-17T10:27:55.002Z,20.48
2023-04-17T10:28:55.004Z,20.48
2023-04-17T10:29:54.985Z,20.48
2023-04-17T10:30:55.509Z,20.48
2023-04-17T10:31:55.109Z,20.48
2023-04-17T10:32:55.081Z,20.48
2023-04-17T10:33:54.985Z,20.39
2023-04-17T10:34:55.004Z,20.39
2023-04-17T10:35:55.029Z,20.39
2023-04-17T10:36:55.078Z,20.29
2023-04-17T10:37:54.985Z,20.29
2023-04-17T10:38:54.990Z,20.19
2023-04-17T10:39:54.984Z,20.09
2023-04-17T10:40:54.993Z,20.09
2023-04-17T10:41:54.985Z,20.29
2023-04-17T10:42:54.993Z,19.90
2023-04-17T10:43:54.985Z,21.75
2023-04-17T10:44:54.992Z,20.68
2023-04-17T10:45:55.007Z,19.90
2023-04-17T10:46:55.003Z,19.90
2023-04-17T10:47:55.030Z,19.70
2023-04-17T10:48:55.001Z,19.70
2023-04-17T10:49:55.002Z,19.80
2023-04-17T10:50:54.989Z,19.61
2023-04-17T10:51:54.988Z,19.70
2023-04-17T10:52:54.990Z,19.51
2023-04-17T10:53:54.982Z,19.61
2023-04-17T10:54:54.991Z,19.70
2023-04-17T10:55:54.982Z,19.70
2023-04-17T10:56:54.989Z,19.70
2023-04-17T10:57:54.981Z,19.61
2023-04-17T10:58:54.988Z,19.70
2023-04-17T10:59:54.988Z,19.70
2023-04-17T11:00:55.017Z,19.79
2023-04-17T11:01:55.056Z,19.79
2023-04-17T11:02:55.095Z,19.79
2023-04-17T11:03:55.058Z,19.79
2023-04-17T11:04:55.077Z,19.60
2023-04-17T11:05:54.985Z,19.50
2023-04-17T11:06:55.002Z,19.60
2023-04-17T11:07:54.985Z,19.50
2023-04-17T11:08:56.253Z,19.40
2023-04-17T11:09:54.988Z,19.51
2023-04-17T11:10:55.002Z,19.50
2023-04-17T11:11:55.002Z,19.40
2023-04-17T11:12:54.991Z,19.50
2023-04-17T11:13:54.979Z,19.50
2023-04-17T11:14:54.988Z,19.89
2023-04-17T11:15:54.986Z,19.79
2023-04-17T11:16:54.995Z,19.70
2023-04-17T11:17:55.079Z,19.50
2023-04-17T11:18:54.997Z,19.70
2023-04-17T11:19:55.016Z,19.60
2023-04-17T11:20:54.993Z,19.70
2023-04-17T11:21:54.976Z,19.79
2023-04-17T11:22:54.991Z,19.70
2023-04-17T11:23:55.022Z,19.50
2023-04-17T11:24:54.985Z,19.51
2023-04-17T11:25:54.982Z,19.42
2023-04-17T11:26:54.988Z,19.42
2023-04-17T11:27:54.977Z,19.50
2023-04-17T11:28:54.981Z,19.22
2023-04-17T11:29:54.975Z,19.22
2023-04-17T11:30:55.000Z,18.93
2023-04-17T11:31:55.000Z,19.02
2023-04-17T11:32:55.007Z,19.22
2023-04-17T11:33:54.978Z,19.22
2023-04-17T11:34:55.004Z,19.12
2023-04-17T11:35:54.994Z,19.12
2023-04-17T11:36:54.997Z,19.22
2023-04-17T11:37:54.973Z,19.22
2023-04-17T11:38:55.500Z,18.83
2023-04-17T11:39:54.972Z,18.83
2023-04-17T11:40:54.979Z,19.12
2023-04-17T11:41:54.972Z,18.93
2023-04-17T11:42:54.978Z,19.02
2023-04-17T11:43:54.970Z,18.93
2023-04-17T11:44:54.979Z,19.02
2023-04-17T11:45:55.012Z,18.83
2023-04-17T11:46:54.987Z,18.93
2023-04-17T11:47:54.989Z,18.93
2023-04-17T11:48:54.980Z,18.93
2023-04-17T11:49:54.972Z,18.84
2023-04-17T11:50:54.986Z,18.73
2023-04-17T11:51:55.016Z,18.74
2023-04-17T11:52:54.998Z,18.54
2023-04-17T11:53:54.971Z,18.55
2023-04-17T11:54:54.988Z,18.35
2023-04-17T11:55:54.977Z,18.25
2023-04-17T11:56:54.976Z,17.97
2023-04-17T11:57:54.973Z,17.97
2023-04-17T11:58:54.978Z,17.87
2023-04-17T11:59:54.974Z,17.68
2023-04-17T12:00:54.978Z,17.57
2023-04-17T12:01:55.016Z,17.48
2023-04-17T12:02:55.116Z,17.68
2023-04-17T12:03:55.180Z,17.29
2023-04-17T12:04:55.068Z,17.29
2023-04-17T12:05:55.027Z,17.58
2023-04-17T12:06:54.977Z,17.38
2023-04-17T12:07:55.001Z,17.38
2023-04-17T12:08:54.985Z,17.09
2023-04-17T12:09:54.971Z,17.29
2023-04-17T12:10:54.985Z,17.19
2023-04-17T12:11:54.970Z,16.99
2023-04-17T12:12:54.978Z,16.99
2023-04-17T12:13:54.973Z,16.71
2023-04-17T12:14:54.982Z,16.90
2023-04-17T12:15:55.022Z,16.90
2023-04-17T12:16:54.978Z,16.99
2023-04-17T12:17:55.017Z,16.80
2023-04-17T12:18:54.980Z,16.99
2023-04-17T12:19:55.016Z,16.80
2023-04-17T12:20:54.978Z,16.60
2023-04-17T12:21:55.016Z,16.71
2023-04-17T12:22:54.980Z,16.22
2023-04-17T12:23:54.994Z,16.22
2023-04-17T12:24:54.975Z,16.02
2023-04-17T12:25:54.972Z,16.02
2023-04-17T12:26:55.025Z,15.92
2023-04-17T12:27:54.972Z,16.31
2023-04-17T12:28:54.984Z,16.22
2023-04-17T12:29:54.971Z,15.92
2023-04-17T12:30:54.978Z,15.92
2023-04-17T12:31:54.980Z,15.63
2023-04-17T12:32:55.024Z,15.72
2023-04-17T12:33:54.970Z,15.72
2023-04-17T12:34:55.016Z,15.53
2023-04-17T12:35:54.991Z,15.34
2023-04-17T12:36:55.005Z,15.14
2023-04-17T12:37:54.968Z,15.24
2023-04-17T12:38:54.977Z,15.15
2023-04-17T12:39:54.993Z,15.14
2023-04-17T12:40:54.980Z,15.44
2023-04-17T12:41:55.020Z,15.53
2023-04-17T12:42:54.983Z,15.24
2023-04-17T12:43:54.978Z,15.24
2023-04-17T12:44:54.981Z,15.34
2023-04-17T12:45:55.026Z,14.95
2023-04-17T12:46:54.980Z,15.44
2023-04-17T12:47:55.016Z,15.24
2023-04-17T12:48:54.977Z,14.95
2023-04-17T12:49:54.972Z,14.95
2023-04-17T12:50:54.986Z,14.95
2023-04-17T12:51:54.974Z,14.95
2023-04-17T12:52:54.975Z,14.95